»·PEaware :: N713AG KHIO-KMFR

N713AG :: KHIO-KMFR

FLIGHT INFORMATION

Flight Status: Arrived
Operator: Privately registered:
United States
More flights under this callsign
Pilot: Charles S. (11412)
Aircraft: SOCATA TBM-900
(TBM9)
More flights by this aircraft type
Origin: KHIO Portland-Hillsboro
United States
Destination: KMFR Rogue Valley Intl-Medford
United States
More flights between these airports :: More routes between these airports
Route: FARM7 UBG SAMIE
File this flight plan on PilotEdge
Remarks:
Altitude:
(Current/Filed)
17,000ft
Speed:
(Current/Filed)
250kts
Departed: 11-Jul-19 07:03 PM
Arrived: 11-Jul-19 08:21 PM
Distance/Time
Traveled:
190nm/1:18
Distance/Time
To Go:
Arrived

Flight Plot

Page will automatically refresh every two minutes.

Flight plan parsing failed; only flown route is shown


Map Options




Map Legend


Flown Route
Filed Route
Departure Airport
Arrival Airport
Navaid (VOR, NDB)
Fix

Horizontal Profiles

Position Reports

Time Latitude Longitude Heading Altitude Ground
Speed
11-Jul-19 18:39 45.540786 -122.955364 325 199ft 0kts
11-Jul-19 18:40 45.540786 -122.955364 325 199ft 0kts
11-Jul-19 18:41 45.540786 -122.955364 325 199ft 0kts
11-Jul-19 18:42 45.540786 -122.955364 325 199ft 0kts
11-Jul-19 18:44 45.540809 -122.955387 324 199ft 0kts
11-Jul-19 18:45 45.540809 -122.955387 324 199ft 0kts
11-Jul-19 18:46 45.540809 -122.955387 324 199ft 0kts
11-Jul-19 18:47 45.540809 -122.955387 324 199ft 0kts
11-Jul-19 18:48 45.540809 -122.955387 324 199ft 0kts
11-Jul-19 18:49 45.540809 -122.955387 324 199ft 0kts
11-Jul-19 18:50 45.540809 -122.955387 324 199ft 0kts
11-Jul-19 18:51 45.540809 -122.955387 324 199ft 0kts
11-Jul-19 18:52 45.540809 -122.955387 324 199ft 0kts
11-Jul-19 18:53 45.540809 -122.955387 324 199ft 0kts
11-Jul-19 18:54 45.540809 -122.955387 324 199ft 0kts
11-Jul-19 18:55 45.540809 -122.955387 324 199ft 0kts
11-Jul-19 18:56 45.540809 -122.955387 324 199ft 0kts
11-Jul-19 18:57 45.540809 -122.955387 324 199ft 0kts
11-Jul-19 18:58 45.541987 -122.956026 358 198ft 22kts
11-Jul-19 18:59 45.540907 -122.952290 142 200ft 20kts
11-Jul-19 19:00 45.536379 -122.947547 145 200ft 23kts
11-Jul-19 19:01 45.534579 -122.945326 69 197ft 0kts
11-Jul-19 19:02 45.534671 -122.945126 52 197ft 9kts
11-Jul-19 19:03 45.539782 -122.949197 323 205ft 106kts
11-Jul-19 19:03 45.551085 -122.972678 262 1270ft 135kts
11-Jul-19 19:05 45.527407 -122.979059 127 2651ft 155kts
11-Jul-19 19:06 45.504491 -122.952413 178 3953ft 166kts
11-Jul-19 19:06 45.477612 -122.956313 186 5148ft 167kts
11-Jul-19 19:07 45.445378 -122.961969 186 6547ft 166kts
11-Jul-19 19:09 45.405462 -122.968991 186 8255ft 164kts
11-Jul-19 19:09 45.379037 -122.973627 186 9360ft 177kts
11-Jul-19 19:10 45.347253 -122.978206 180 10587ft 190kts
11-Jul-19 19:11 45.313060 -122.978737 180 11821ft 190kts
11-Jul-19 19:12 45.280535 -122.979213 180 12988ft 188kts
11-Jul-19 19:13 45.248426 -122.979683 180 13985ft 198kts
11-Jul-19 19:14 45.212011 -122.980217 180 14794ft 214kts
11-Jul-19 19:15 45.172308 -122.980796 180 14893ft 246kts
11-Jul-19 19:16 45.128202 -122.981436 180 14878ft 263kts
11-Jul-19 19:17 45.082975 -122.982097 180 15552ft 250kts
11-Jul-19 19:18 45.030730 -122.982859 180 16437ft 240kts
11-Jul-19 19:19 44.986170 -122.983507 180 16885ft 256kts
11-Jul-19 19:20 44.939678 -122.984179 180 16882ft 275kts
11-Jul-19 19:21 44.880749 -122.985024 180 16874ft 281kts
11-Jul-19 19:22 44.833302 -122.985707 180 16872ft 282kts
11-Jul-19 19:23 44.784684 -122.986408 180 16872ft 283kts
11-Jul-19 19:24 44.729661 -122.987199 180 16871ft 283kts
11-Jul-19 19:25 44.679525 -122.987919 180 16872ft 284kts
11-Jul-19 19:26 44.628906 -122.988645 180 16871ft 284kts
11-Jul-19 19:27 44.577490 -122.989380 180 16871ft 284kts
11-Jul-19 19:28 44.526805 -122.990104 180 16872ft 284kts
11-Jul-19 19:29 44.475664 -122.990833 180 16871ft 284kts
11-Jul-19 19:30 44.424068 -122.991568 180 16872ft 283kts
11-Jul-19 19:31 44.381477 -122.991858 183 16950ft 277kts
11-Jul-19 19:32 44.337817 -122.992708 185 16997ft 268kts
11-Jul-19 19:33 44.290022 -122.993464 185 16998ft 267kts
11-Jul-19 19:34 44.243688 -122.994129 185 16998ft 267kts
11-Jul-19 19:35 44.198163 -122.994772 185 16998ft 266kts
11-Jul-19 19:36 44.152734 -122.995412 185 16998ft 266kts
11-Jul-19 19:37 44.106146 -122.996068 185 16998ft 266kts
11-Jul-19 19:38 44.059753 -122.996718 185 16997ft 266kts
11-Jul-19 19:39 44.014107 -122.997358 185 16997ft 266kts
11-Jul-19 19:40 43.968900 -122.997991 185 16997ft 266kts
11-Jul-19 19:41 43.924006 -122.998618 185 16997ft 266kts
11-Jul-19 19:42 43.876890 -122.999276 185 17002ft 266kts
11-Jul-19 19:43 43.832870 -122.999890 185 17001ft 266kts
11-Jul-19 19:44 43.777118 -123.000666 185 17001ft 267kts
11-Jul-19 19:45 43.733611 -123.001271 185 17001ft 267kts
11-Jul-19 19:46 43.676155 -123.002068 185 17000ft 267kts
11-Jul-19 19:47 43.628469 -123.002728 185 16996ft 267kts
11-Jul-19 19:48 43.578966 -123.003412 185 16990ft 267kts
11-Jul-19 19:49 43.529392 -123.004096 185 16982ft 264kts
11-Jul-19 19:50 43.476629 -123.004799 185 15995ft 244kts
11-Jul-19 19:51 43.425780 -123.005542 184 15181ft 271kts
11-Jul-19 19:52 43.370879 -123.006289 184 14350ft 282kts
11-Jul-19 19:53 43.307040 -123.007156 183 13386ft 286kts
11-Jul-19 19:54 43.257574 -123.007828 184 12560ft 257kts
11-Jul-19 19:55 43.208855 -123.008475 184 11677ft 243kts
11-Jul-19 19:56 43.161469 -123.009126 184 11057ft 246kts
11-Jul-19 19:57 43.115404 -123.009779 184 11057ft 254kts
11-Jul-19 19:58 43.065705 -123.010450 184 11054ft 256kts
11-Jul-19 19:59 43.012163 -123.011191 183 11051ft 257kts
11-Jul-19 20:00 42.965686 -123.011829 183 11043ft 257kts
11-Jul-19 20:01 42.915200 -123.012614 183 10425ft 238kts
11-Jul-19 20:02 42.876031 -123.013545 183 9850ft 246kts
11-Jul-19 20:03 42.832247 -123.014858 183 9227ft 250kts
11-Jul-19 20:04 42.791645 -123.015862 183 8652ft 252kts
11-Jul-19 20:05 42.752350 -123.016678 183 8098ft 254kts
11-Jul-19 20:06 42.708411 -123.017432 183 7991ft 249kts
11-Jul-19 20:07 42.663313 -123.018180 183 7991ft 249kts
11-Jul-19 20:08 42.622794 -123.018833 183 7787ft 250kts
11-Jul-19 20:09 42.579518 -123.019496 183 7233ft 252kts
11-Jul-19 20:10 42.537594 -123.019507 174 6974ft 246kts
11-Jul-19 20:11 42.495581 -122.997343 158 6196ft 240kts
11-Jul-19 20:12 42.458235 -122.967008 148 4916ft 221kts
11-Jul-19 20:13 42.425144 -122.938583 154 4074ft 182kts
11-Jul-19 20:14 42.395403 -122.916412 154 3450ft 150kts
11-Jul-19 20:15 42.370003 -122.899728 157 2901ft 126kts
11-Jul-19 20:16 42.347812 -122.887231 156 2749ft 118kts
11-Jul-19 20:17 42.338804 -122.869168 51 2389ft 110kts
11-Jul-19 20:18 42.352461 -122.861533 338 1657ft 78kts
11-Jul-19 20:19 42.367078 -122.869122 336 1327ft 80kts
11-Jul-19 20:20 42.373379 -122.873388 246 1312ft 12kts
11-Jul-19 20:21 42.373066 -122.873766 188 1311ft 11kts
11-Jul-19 20:22 42.367948 -122.871172 158 1319ft 21kts
11-Jul-19 20:23 42.370149 -122.872353 338 1315ft 21kts
11-Jul-19 20:24 42.372062 -122.876558 240 1309ft 18kts
11-Jul-19 20:25 42.371845 -122.877377 293 1309ft 0kts

Navigation Log

Ident Type
Flight plan parsing failed, navigation log unavailable